createdAt,value
2023-03-16T00:00:55.912Z,98245.81
2023-03-16T00:03:23.471Z,98237.25
2023-03-16T00:05:54.166Z,98245.81
2023-03-16T00:08:21.571Z,98245.81
2023-03-16T00:10:49.372Z,98246.91
2023-03-16T00:13:23.972Z,98238.41
2023-03-16T00:15:58.900Z,98251.97
2023-03-16T00:18:29.136Z,98251.38
2023-03-16T00:21:05.405Z,98250.53
2023-03-16T00:23:35.901Z,98246.34
2023-03-16T00:26:08.353Z,98253.44
2023-03-16T00:28:36.880Z,98259.72
2023-03-16T00:31:08.264Z,98253.69
2023-03-16T00:33:35.694Z,98250.91
2023-03-16T00:36:05.481Z,98251.00
2023-03-16T00:38:36.492Z,98259.88
2023-03-16T00:41:07.751Z,98252.16
2023-03-16T00:43:46.674Z,98255.44
2023-03-16T00:46:17.878Z,98253.94
2023-03-16T00:48:47.426Z,98256.44
2023-03-16T00:51:18.053Z,98247.84
2023-03-16T00:53:46.781Z,98253.94
2023-03-16T00:56:14.814Z,98257.44
2023-03-16T00:58:43.448Z,98251.44
2023-03-16T01:01:19.630Z,98250.59
2023-03-16T01:03:47.492Z,98253.94
2023-03-16T01:06:20.191Z,98249.69
2023-03-16T01:08:47.424Z,98255.13
2023-03-16T01:11:20.627Z,98255.97
2023-03-16T01:13:50.079Z,98257.69
2023-03-16T01:16:19.101Z,98263.00
2023-03-16T01:18:47.590Z,98262.34
2023-03-16T01:21:16.106Z,98260.66
2023-03-16T01:23:44.356Z,98270.19
2023-03-16T01:26:12.686Z,98266.94
2023-03-16T01:28:39.934Z,98267.69
2023-03-16T01:31:11.720Z,98271.91
2023-03-16T01:33:39.369Z,98280.53
2023-03-16T01:36:14.221Z,98282.31
2023-03-16T01:38:42.299Z,98271.97
2023-03-16T01:41:10.635Z,98274.72
2023-03-16T01:43:40.923Z,98280.81
2023-03-16T01:46:19.101Z,98280.75
2023-03-16T01:49:19.987Z,98281.75
2023-03-16T01:52:08.653Z,98285.97
2023-03-16T01:54:45.822Z,98276.56
2023-03-16T01:57:22.673Z,98286.91
2023-03-16T01:59:54.491Z,98285.16
2023-03-16T02:02:30.249Z,98291.22
2023-03-16T02:05:09.825Z,98289.56
2023-03-16T02:07:46.973Z,98286.44
2023-03-16T02:10:18.391Z,98287.22
2023-03-16T02:12:47.395Z,98289.84
2023-03-16T02:15:15.328Z,98287.38
2023-03-16T02:17:46.308Z,98296.09
2023-03-16T02:20:19.168Z,98298.66
2023-03-16T02:22:54.164Z,98302.19
2023-03-16T02:25:30.224Z,98299.72
2023-03-16T02:28:20.341Z,98303.28
2023-03-16T02:30:48.771Z,98317.03
2023-03-16T02:33:19.602Z,98311.84
2023-03-16T02:35:47.010Z,98318.72
2023-03-16T02:38:14.642Z,98320.66
2023-03-16T02:40:43.987Z,98330.94
2023-03-16T02:43:16.888Z,98334.28
2023-03-16T02:45:51.398Z,98337.81
2023-03-16T02:48:32.343Z,98342.97
2023-03-16T02:51:00.001Z,98348.09
2023-03-16T02:53:28.133Z,98349.09
2023-03-16T02:55:55.523Z,98360.16
2023-03-16T02:58:23.119Z,98357.00
2023-03-16T03:00:50.623Z,98365.72
2023-03-16T03:03:18.972Z,98364.91
2023-03-16T03:05:46.406Z,98368.31
2023-03-16T03:08:14.626Z,98375.19
2023-03-16T03:10:41.917Z,98377.00
2023-03-16T03:13:09.476Z,98374.41
2023-03-16T03:15:36.768Z,98370.13
2023-03-16T03:18:04.508Z,98369.38
2023-03-16T03:20:31.894Z,98371.94
2023-03-16T03:22:59.548Z,98376.16
2023-03-16T03:25:26.874Z,98371.94
2023-03-16T03:27:54.854Z,98378.81
2023-03-16T03:30:24.929Z,98375.34
2023-03-16T03:32:52.733Z,98377.09
2023-03-16T03:35:21.516Z,98380.63
2023-03-16T03:37:50.548Z,98387.38
2023-03-16T03:40:20.199Z,98388.38
2023-03-16T03:42:48.442Z,98393.34
2023-03-16T03:45:16.588Z,98391.56
2023-03-16T03:47:44.607Z,98395.34
2023-03-16T03:50:14.015Z,98400.53
2023-03-16T03:52:41.845Z,98393.72
2023-03-16T03:55:10.817Z,98403.16
2023-03-16T03:57:38.338Z,98401.53
2023-03-16T04:00:09.858Z,98410.38
2023-03-16T04:02:38.993Z,98414.00
2023-03-16T04:05:07.903Z,98415.75
2023-03-16T04:07:35.612Z,98410.72
2023-03-16T04:10:03.114Z,98431.47
2023-03-16T04:12:30.656Z,98422.00
2023-03-16T04:14:58.015Z,98418.59
2023-03-16T04:17:25.784Z,98417.66
2023-03-16T04:19:53.064Z,98419.47
2023-03-16T04:22:23.266Z,98430.53
2023-03-16T04:24:52.330Z,98428.00
2023-03-16T04:27:19.864Z,98423.75
2023-03-16T04:29:47.175Z,98424.56
2023-03-16T04:32:14.761Z,98431.63
2023-03-16T04:34:43.915Z,98429.69
2023-03-16T04:37:12.004Z,98425.50
2023-03-16T04:39:39.411Z,98432.31
2023-03-16T04:42:07.240Z,98431.50
2023-03-16T04:44:34.467Z,98424.69
2023-03-16T04:47:05.039Z,98427.09
2023-03-16T04:49:32.288Z,98428.00
2023-03-16T04:52:09.711Z,98435.56
2023-03-16T04:54:37.004Z,98442.28
2023-03-16T04:57:05.791Z,98442.16
2023-03-16T04:59:33.152Z,98435.31
2023-03-16T05:02:01.108Z,98445.50
2023-03-16T05:04:28.554Z,98438.59
2023-03-16T05:06:56.121Z,98441.94
2023-03-16T05:09:23.367Z,98453.84
2023-03-16T05:11:50.967Z,98454.59
2023-03-16T05:14:18.276Z,98452.81
2023-03-16T05:16:45.798Z,98453.66
2023-03-16T05:19:13.082Z,98456.19
2023-03-16T05:21:40.683Z,98462.03
2023-03-16T05:24:08.627Z,98463.09
2023-03-16T05:26:36.191Z,98464.69
2023-03-16T05:29:03.737Z,98461.06
2023-03-16T05:31:35.016Z,98451.63
2023-03-16T05:34:02.513Z,98468.56
2023-03-16T05:36:30.112Z,98464.22
2023-03-16T05:38:58.365Z,98483.09
2023-03-16T05:41:25.960Z,98477.78
2023-03-16T05:43:53.279Z,98478.38
2023-03-16T05:46:21.071Z,98484.34
2023-03-16T05:48:48.383Z,98474.88
2023-03-16T05:51:16.075Z,98482.38
2023-03-16T05:53:46.662Z,98478.16
2023-03-16T05:56:14.236Z,98488.38
2023-03-16T05:58:42.337Z,98485.69
2023-03-16T06:01:11.338Z,98494.06
2023-03-16T06:03:38.863Z,98494.81
2023-03-16T06:06:06.595Z,98502.75
2023-03-16T06:08:33.829Z,98509.41
2023-03-16T06:11:01.566Z,98514.50
2023-03-16T06:13:28.790Z,98517.53
2023-03-16T06:15:56.415Z,98515.31
2023-03-16T06:18:23.702Z,98525.31
2023-03-16T06:20:51.525Z,98521.16
2023-03-16T06:23:20.411Z,98530.19
2023-03-16T06:25:49.120Z,98526.59
2023-03-16T06:28:16.973Z,98526.09
2023-03-16T06:30:44.475Z,98532.28
2023-03-16T06:33:11.799Z,98539.84
2023-03-16T06:35:39.515Z,98542.03
2023-03-16T06:38:06.801Z,98546.28
2023-03-16T06:40:34.477Z,98548.88
2023-03-16T06:43:02.208Z,98553.00
2023-03-16T06:45:29.905Z,98552.50
2023-03-16T06:47:57.248Z,98544.69
2023-03-16T06:50:25.379Z,98544.56
2023-03-16T06:52:52.751Z,98548.53
2023-03-16T06:55:20.407Z,98539.28
2023-03-16T06:57:47.734Z,98548.16
2023-03-16T07:00:16.207Z,98551.44
2023-03-16T07:02:43.960Z,98551.16
2023-03-16T07:05:15.214Z,98551.53
2023-03-16T07:07:43.734Z,98556.47
2023-03-16T07:10:17.692Z,98559.84
2023-03-16T07:12:45.708Z,98558.75
2023-03-16T07:15:14.265Z,98557.78
2023-03-16T07:17:42.723Z,98571.88
2023-03-16T07:20:12.925Z,98577.25
2023-03-16T07:22:41.921Z,98574.84
2023-03-16T07:25:11.567Z,98572.19
2023-03-16T07:27:39.037Z,98578.94
2023-03-16T07:30:07.520Z,98579.06
2023-03-16T07:32:34.899Z,98574.25
2023-03-16T07:35:02.570Z,98581.47
2023-03-16T07:37:29.875Z,98580.38
2023-03-16T07:39:57.466Z,98577.19
2023-03-16T07:42:24.771Z,98575.50
2023-03-16T07:44:52.384Z,98576.81
2023-03-16T07:47:19.853Z,98575.22
2023-03-16T07:49:47.419Z,98572.47
2023-03-16T07:52:14.698Z,98574.84
2023-03-16T07:54:45.057Z,98566.47
2023-03-16T07:57:12.333Z,98563.50
2023-03-16T07:59:40.411Z,98566.31
2023-03-16T08:02:16.254Z,98571.75
2023-03-16T08:04:45.284Z,98581.19
2023-03-16T08:07:15.047Z,98581.78
2023-03-16T08:09:43.801Z,98590.47
2023-03-16T08:12:11.964Z,98594.03
2023-03-16T08:14:39.724Z,98584.94
2023-03-16T08:17:07.656Z,98588.91
2023-03-16T08:19:35.272Z,98588.34
2023-03-16T08:22:03.802Z,98582.06
2023-03-16T08:24:33.234Z,98592.69
2023-03-16T08:27:01.179Z,98589.31
2023-03-16T08:29:29.104Z,98591.84
2023-03-16T08:31:57.645Z,98599.84
2023-03-16T08:34:27.019Z,98600.41
2023-03-16T08:36:55.450Z,98602.94
2023-03-16T08:39:23.178Z,98605.94
2023-03-16T08:41:51.148Z,98610.25
2023-03-16T08:44:20.191Z,98613.59
2023-03-16T08:46:47.616Z,98604.53
2023-03-16T08:49:15.482Z,98606.47
2023-03-16T08:51:44.763Z,98605.78
2023-03-16T08:54:13.080Z,98612.16
2023-03-16T08:56:40.448Z,98622.81
2023-03-16T08:59:14.150Z,98619.31
2023-03-16T09:01:50.999Z,98626.47
2023-03-16T09:04:18.792Z,98631.06
2023-03-16T09:06:55.812Z,98631.56
2023-03-16T09:09:31.205Z,98630.31
2023-03-16T09:11:59.104Z,98633.81
2023-03-16T09:14:26.825Z,98633.53
2023-03-16T09:16:54.389Z,98627.25
2023-03-16T09:19:22.954Z,98632.94
2023-03-16T09:21:50.400Z,98637.50
2023-03-16T09:24:18.557Z,98634.66
2023-03-16T09:26:45.928Z,98642.16
2023-03-16T09:29:14.860Z,98635.94
2023-03-16T09:31:43.456Z,98634.16
2023-03-16T09:34:11.944Z,98632.03
2023-03-16T09:36:39.515Z,98637.38
2023-03-16T09:39:07.705Z,98635.28
2023-03-16T09:42:10.306Z,98632.31
2023-03-16T09:45:11.283Z,98637.16
2023-03-16T09:47:41.945Z,98647.22
2023-03-16T09:50:24.439Z,98645.09
2023-03-16T09:53:27.142Z,98649.94
2023-03-16T09:56:16.891Z,98647.50
2023-03-16T09:58:44.345Z,98639.16
2023-03-16T10:01:15.076Z,98632.44
2023-03-16T10:03:59.114Z,98638.16
2023-03-16T10:06:28.322Z,98632.09
2023-03-16T10:09:20.484Z,98646.72
2023-03-16T10:11:56.932Z,98653.75
2023-03-16T10:14:51.191Z,98653.25
2023-03-16T10:17:28.450Z,98651.47
2023-03-16T10:20:23.703Z,98657.28
2023-03-16T10:22:53.119Z,98663.97
2023-03-16T10:25:33.163Z,98668.69
2023-03-16T10:28:01.552Z,98663.28
2023-03-16T10:30:37.553Z,98680.50
2023-03-16T10:33:27.778Z,98665.38
2023-03-16T10:36:24.365Z,98660.53
2023-03-16T10:39:00.793Z,98662.50
2023-03-16T10:41:38.414Z,98669.44
2023-03-16T10:44:27.331Z,98670.59
2023-03-16T10:47:08.407Z,98660.41
2023-03-16T10:49:44.510Z,98659.16
2023-03-16T10:52:20.581Z,98653.19
2023-03-16T10:55:10.791Z,98678.63
2023-03-16T10:57:43.692Z,98672.88
2023-03-16T11:00:13.938Z,98665.75
2023-03-16T11:02:42.657Z,98669.63
2023-03-16T11:05:32.845Z,98663.81
2023-03-16T11:08:22.299Z,98669.09
2023-03-16T11:10:58.543Z,98650.97
2023-03-16T11:13:35.957Z,98662.44
2023-03-16T11:16:24.116Z,98665.31
2023-03-16T11:18:58.948Z,98671.13
2023-03-16T11:22:16.519Z,98659.63
2023-03-16T11:24:52.865Z,98654.53
2023-03-16T11:27:49.177Z,98654.19
2023-03-16T11:30:35.385Z,98646.34
2023-03-16T11:33:04.233Z,98641.34
2023-03-16T11:36:01.146Z,98646.81
2023-03-16T11:39:11.201Z,98643.44
2023-03-16T11:42:39.526Z,98642.38
2023-03-16T11:45:19.104Z,98627.91
2023-03-16T11:48:25.101Z,98623.28
2023-03-16T11:51:37.045Z,98617.09
2023-03-16T11:54:28.408Z,98619.03
2023-03-16T11:57:38.908Z,98621.09
2023-03-16T12:00:15.059Z,98611.91
2023-03-16T12:03:38.214Z,98621.69
2023-03-16T12:06:24.490Z,98636.34
2023-03-16T12:09:04.601Z,98634.09
2023-03-16T12:11:42.445Z,98632.16
2023-03-16T12:14:30.918Z,98625.22
2023-03-16T12:17:21.201Z,98629.56
2023-03-16T12:19:54.542Z,98642.25
2023-03-16T12:22:41.461Z,98631.97
2023-03-16T12:25:25.845Z,98631.91
2023-03-16T12:27:57.092Z,98625.34
2023-03-16T12:30:41.195Z,98632.56
2023-03-16T12:33:46.544Z,98621.47
2023-03-16T12:36:55.976Z,98634.69
2023-03-16T12:39:51.634Z,98622.66
2023-03-16T12:43:10.023Z,98621.28
2023-03-16T12:45:49.754Z,98614.03
2023-03-16T12:48:32.357Z,98612.56
2023-03-16T12:51:05.166Z,98611.13
2023-03-16T12:53:51.989Z,98624.66
2023-03-16T12:56:53.991Z,98629.59
2023-03-16T12:59:26.210Z,98616.81
2023-03-16T13:01:59.870Z,98611.94
2023-03-16T13:04:38.868Z,98616.09
2023-03-16T13:07:19.832Z,98615.81
2023-03-16T13:10:16.633Z,98615.25
2023-03-16T13:12:46.314Z,98617.63
2023-03-16T13:15:20.590Z,98627.22
2023-03-16T13:18:09.998Z,98621.00
2023-03-16T13:21:00.993Z,98626.72
2023-03-16T13:24:26.012Z,98631.72
2023-03-16T13:27:01.412Z,98626.81
2023-03-16T13:29:32.740Z,98629.13
2023-03-16T13:32:07.661Z,98625.66
2023-03-16T13:34:58.844Z,98623.63
2023-03-16T13:37:30.005Z,98624.81
2023-03-16T13:40:01.886Z,98628.91
2023-03-16T13:42:33.688Z,98620.47
2023-03-16T13:45:15.629Z,98613.53
2023-03-16T13:47:45.494Z,98608.69
2023-03-16T13:50:16.109Z,98604.69
2023-03-16T13:52:52.887Z,98602.31
2023-03-16T13:55:34.788Z,98608.16
2023-03-16T13:58:04.121Z,98618.81
2023-03-16T14:00:37.327Z,98615.16
2023-03-16T14:03:21.975Z,98607.88
2023-03-16T14:05:49.681Z,98607.50
2023-03-16T14:08:24.420Z,98619.13
2023-03-16T14:10:59.809Z,98602.88
2023-03-16T14:13:29.167Z,98619.66
2023-03-16T14:16:18.371Z,98617.53
2023-03-16T14:18:52.827Z,98612.41
2023-03-16T14:21:26.280Z,98612.66
2023-03-16T14:24:06.978Z,98606.38
2023-03-16T14:26:48.461Z,98614.47
2023-03-16T14:29:31.523Z,98611.66
2023-03-16T14:32:03.397Z,98613.78
2023-03-16T14:34:39.871Z,98619.47
2023-03-16T14:37:12.333Z,98613.34
2023-03-16T14:39:41.304Z,98603.13
2023-03-16T14:42:29.672Z,98600.03
2023-03-16T14:45:00.961Z,98598.13
2023-03-16T14:47:42.461Z,98601.19
2023-03-16T14:50:25.535Z,98605.09
2023-03-16T14:52:57.392Z,98605.84
2023-03-16T14:55:25.824Z,98603.22
2023-03-16T14:57:53.402Z,98610.41
2023-03-16T15:00:23.036Z,98608.72
2023-03-16T15:03:15.390Z,98611.88
2023-03-16T15:05:48.629Z,98615.63
2023-03-16T15:08:33.747Z,98615.41
2023-03-16T15:11:06.737Z,98622.78
2023-03-16T15:13:35.211Z,98629.91
2023-03-16T15:16:04.658Z,98631.09
2023-03-16T15:18:33.925Z,98628.47
2023-03-16T15:21:03.011Z,98626.44
2023-03-16T15:23:31.363Z,98623.34
2023-03-16T15:26:00.711Z,98623.25
2023-03-16T15:28:28.722Z,98634.41
2023-03-16T15:30:59.400Z,98627.50
2023-03-16T15:33:27.606Z,98626.31
2023-03-16T15:36:02.166Z,98625.28
2023-03-16T15:38:39.853Z,98629.56
2023-03-16T15:41:14.608Z,98624.44
2023-03-16T15:43:42.060Z,98625.34
2023-03-16T15:46:10.583Z,98629.81
2023-03-16T15:48:38.704Z,98631.97
2023-03-16T15:51:16.242Z,98634.94
2023-03-16T15:54:05.014Z,98636.47
2023-03-16T15:56:52.839Z,98633.75
2023-03-16T15:59:22.310Z,98638.38
2023-03-16T16:01:52.548Z,98640.44
2023-03-16T16:04:25.028Z,98632.88
2023-03-16T16:06:55.429Z,98637.31
2023-03-16T16:09:23.481Z,98634.16
2023-03-16T16:11:51.568Z,98638.00
2023-03-16T16:14:26.606Z,98632.81
2023-03-16T16:16:54.690Z,98638.88
2023-03-16T16:19:22.115Z,98645.31
2023-03-16T16:21:49.878Z,98645.38
2023-03-16T16:24:18.580Z,98640.13
2023-03-16T16:26:55.610Z,98653.56
2023-03-16T16:29:32.181Z,98654.25
2023-03-16T16:32:01.005Z,98652.47
2023-03-16T16:34:28.741Z,98654.06
2023-03-16T16:36:57.813Z,98653.94
2023-03-16T16:39:25.523Z,98656.44
2023-03-16T16:41:56.756Z,98655.84
2023-03-16T16:44:33.833Z,98658.91
2023-03-16T16:47:03.724Z,98663.75
2023-03-16T16:49:31.583Z,98669.63
2023-03-16T16:51:59.718Z,98661.81
2023-03-16T16:54:32.166Z,98655.09
2023-03-16T16:57:01.690Z,98661.50
2023-03-16T16:59:37.011Z,98659.53
2023-03-16T17:02:30.905Z,98672.13
2023-03-16T17:04:58.773Z,98663.38
2023-03-16T17:07:26.635Z,98660.38
2023-03-16T17:09:54.284Z,98667.56
2023-03-16T17:12:24.644Z,98670.66
2023-03-16T17:14:52.286Z,98679.09
2023-03-16T17:17:20.391Z,98681.56
2023-03-16T17:19:48.578Z,98678.34
2023-03-16T17:22:24.958Z,98679.72
2023-03-16T17:24:54.110Z,98683.78
2023-03-16T17:27:33.179Z,98683.22
2023-03-16T17:30:00.812Z,98686.16
2023-03-16T17:32:28.647Z,98684.66
2023-03-16T17:34:56.404Z,98677.94
2023-03-16T17:37:24.133Z,98685.97
2023-03-16T17:39:52.737Z,98685.28
2023-03-16T17:42:23.216Z,98685.56
2023-03-16T17:44:53.310Z,98684.00
2023-03-16T17:47:27.588Z,98683.50
2023-03-16T17:49:57.156Z,98672.53
2023-03-16T17:52:29.368Z,98681.59
2023-03-16T17:54:57.359Z,98686.31
2023-03-16T17:57:31.322Z,98683.03
2023-03-16T18:00:01.921Z,98679.94
2023-03-16T18:02:57.753Z,98688.09
2023-03-16T18:05:31.279Z,98690.97
2023-03-16T18:08:22.787Z,98697.00
2023-03-16T18:11:01.122Z,98701.69
2023-03-16T18:13:38.001Z,98697.63
2023-03-16T18:16:07.797Z,98701.72
2023-03-16T18:18:39.520Z,98700.31
2023-03-16T18:21:07.261Z,98704.66
2023-03-16T18:23:36.982Z,98703.19
2023-03-16T18:26:06.390Z,98704.97
2023-03-16T18:28:35.241Z,98700.84
2023-03-16T18:31:05.275Z,98708.69
2023-03-16T18:33:38.396Z,98706.44
2023-03-16T18:36:18.328Z,98705.25
2023-03-16T18:38:50.546Z,98716.53
2023-03-16T18:41:25.292Z,98715.53
2023-03-16T18:43:58.171Z,98719.03
2023-03-16T18:46:35.583Z,98719.09
2023-03-16T18:49:34.179Z,98717.09
2023-03-16T18:52:01.861Z,98724.06
2023-03-16T18:54:36.851Z,98724.13
2023-03-16T18:57:14.463Z,98711.94
2023-03-16T18:59:42.391Z,98726.19
2023-03-16T19:02:39.773Z,98725.34
2023-03-16T19:05:31.828Z,98730.59
2023-03-16T19:07:59.937Z,98731.72
2023-03-16T19:10:56.483Z,98732.63
2023-03-16T19:13:26.368Z,98740.28
2023-03-16T19:15:57.883Z,98733.41
2023-03-16T19:18:26.348Z,98737.69
2023-03-16T19:20:56.593Z,98741.19
2023-03-16T19:23:31.063Z,98740.41
2023-03-16T19:25:59.271Z,98738.66
2023-03-16T19:28:34.858Z,98738.88
2023-03-16T19:31:19.380Z,98742.63
2023-03-16T19:33:48.402Z,98747.06
2023-03-16T19:36:26.585Z,98751.66
2023-03-16T19:38:54.483Z,98741.66
2023-03-16T19:41:35.585Z,98745.06
2023-03-16T19:44:26.407Z,98746.25
2023-03-16T19:46:56.277Z,98750.41
2023-03-16T19:49:27.214Z,98752.16
2023-03-16T19:51:56.823Z,98751.25
2023-03-16T19:54:34.005Z,98751.78
2023-03-16T19:57:12.513Z,98754.97
2023-03-16T19:59:41.924Z,98753.28
2023-03-16T20:02:35.875Z,98750.00
2023-03-16T20:05:03.953Z,98749.16
2023-03-16T20:07:37.942Z,98758.84
2023-03-16T20:10:12.323Z,98756.38
2023-03-16T20:12:42.664Z,98764.06
2023-03-16T20:15:21.068Z,98754.69
2023-03-16T20:17:51.199Z,98757.97
2023-03-16T20:20:29.735Z,98753.66
2023-03-16T20:22:59.758Z,98755.13
2023-03-16T20:25:32.748Z,98756.75
2023-03-16T20:28:03.998Z,98756.81
2023-03-16T20:30:32.270Z,98751.09
2023-03-16T20:33:00.222Z,98745.41
2023-03-16T20:35:32.527Z,98746.34
2023-03-16T20:38:00.524Z,98758.47
2023-03-16T20:40:28.418Z,98760.97
2023-03-16T20:42:56.536Z,98762.78
2023-03-16T20:45:30.614Z,98756.03
2023-03-16T20:47:58.529Z,98757.94
2023-03-16T20:50:31.016Z,98758.22
2023-03-16T20:52:58.651Z,98754.91
2023-03-16T20:55:29.441Z,98753.16
2023-03-16T20:57:57.703Z,98759.06
2023-03-16T21:00:33.322Z,98760.88
2023-03-16T21:03:05.073Z,98758.34
2023-03-16T21:05:32.545Z,98758.28
2023-03-16T21:08:00.130Z,98761.34
2023-03-16T21:10:28.442Z,98757.19
2023-03-16T21:12:57.823Z,98757.97
2023-03-16T21:15:30.589Z,98758.22
2023-03-16T21:18:07.418Z,98753.81
2023-03-16T21:20:36.775Z,98757.41
2023-03-16T21:23:04.571Z,98754.22
2023-03-16T21:25:38.613Z,98758.09
2023-03-16T21:28:06.248Z,98758.78
2023-03-16T21:30:39.883Z,98761.47
2023-03-16T21:33:35.541Z,98762.59
2023-03-16T21:36:07.236Z,98763.66
2023-03-16T21:38:35.137Z,98763.88
2023-03-16T21:41:02.387Z,98761.72
2023-03-16T21:43:31.565Z,98765.47
2023-03-16T21:45:59.701Z,98768.00
2023-03-16T21:48:53.056Z,98763.78
2023-03-16T21:51:27.972Z,98767.03
2023-03-16T21:53:56.020Z,98766.47
2023-03-16T21:56:26.190Z,98764.03
2023-03-16T21:58:54.953Z,98769.84
2023-03-16T22:01:30.444Z,98764.63
2023-03-16T22:04:09.046Z,98764.78
2023-03-16T22:06:36.798Z,98766.72
2023-03-16T22:09:04.504Z,98757.94
2023-03-16T22:11:32.207Z,98756.97
2023-03-16T22:14:00.087Z,98753.88
2023-03-16T22:16:34.983Z,98758.38
2023-03-16T22:19:04.312Z,98748.38
2023-03-16T22:21:41.285Z,98758.00
2023-03-16T22:24:30.068Z,98756.31
2023-03-16T22:26:58.129Z,98744.47
2023-03-16T22:29:36.726Z,98744.56
2023-03-16T22:32:18.341Z,98743.88
2023-03-16T22:34:48.448Z,98744.91
2023-03-16T22:37:24.223Z,98746.00
2023-03-16T22:39:53.130Z,98738.19
2023-03-16T22:42:35.882Z,98740.00
2023-03-16T22:45:17.080Z,98727.19
2023-03-16T22:47:44.887Z,98731.31
2023-03-16T22:50:18.004Z,98720.22
2023-03-16T22:52:50.167Z,98721.25
2023-03-16T22:55:29.755Z,98711.97
2023-03-16T22:58:30.339Z,98712.78
2023-03-16T23:01:02.490Z,98710.09
2023-03-16T23:03:30.302Z,98706.66
2023-03-16T23:05:57.948Z,98711.94
2023-03-16T23:08:26.778Z,98705.94
2023-03-16T23:10:56.069Z,98702.50
2023-03-16T23:13:25.609Z,98709.31
2023-03-16T23:15:53.770Z,98705.28
2023-03-16T23:18:25.458Z,98709.06
2023-03-16T23:20:53.314Z,98713.34
2023-03-16T23:23:21.144Z,98727.09
2023-03-16T23:25:48.871Z,98725.50
2023-03-16T23:28:23.119Z,98720.44
2023-03-16T23:30:51.157Z,98724.63
2023-03-16T23:33:18.507Z,98717.97
2023-03-16T23:35:47.072Z,98721.19
2023-03-16T23:38:14.444Z,98727.28
2023-03-16T23:40:42.303Z,98733.34
2023-03-16T23:43:09.810Z,98731.66
2023-03-16T23:45:39.056Z,98735.09
2023-03-16T23:48:13.966Z,98739.63
2023-03-16T23:50:42.755Z,98743.91
2023-03-16T23:53:17.622Z,98726.56
2023-03-16T23:55:47.002Z,98732.56
2023-03-16T23:58:16.322Z,98731.81
